Time;durP1;ratioP1;P1;durP2;ratioP2;P2;SDS_P1;SDS_P2;PMS_P1;PMS_P2;Temp;Humidity;BMP_temperature;BMP_pressure;BME280_temperature;BME280_humidity;BME280_pressure;Samples;Min_cycle;Max_cycle;Signal;HPM_P1;HPM_P2
2022/07/05 00:01:37;;;;;;;7.90;4.10;;;;;;;23.47;49.97;95013.47;5056110;28;20442;-79
2022/07/05 00:04:04;;;;;;;4.73;3.70;;;;;;;23.49;50.10;95007.91;5055853;28;20439;-80
2022/07/05 00:06:31;;;;;;;12.53;3.90;;;;;;;23.44;49.93;95000.50;5055427;28;20446;-80
2022/07/05 00:08:58;;;;;;;6.30;4.03;;;;;;;23.27;50.62;94996.56;5055454;28;20485;-80
2022/07/05 00:11:25;;;;;;;9.00;5.03;;;;;;;23.07;51.46;94988.53;5055397;28;20678;-80
2022/07/05 00:13:52;;;;;;;6.23;4.10;;;;;;;23.03;51.67;94989.13;5055546;28;20488;-81
2022/07/05 00:16:19;;;;;;;4.43;4.13;;;;;;;22.97;51.38;94981.94;5055494;28;20442;-80
2022/07/05 00:18:47;;;;;;;4.67;3.70;;;;;;;22.98;51.28;94989.75;5055595;28;20967;-79
2022/07/05 00:21:14;;;;;;;8.90;4.57;;;;;;;22.83;52.62;95002.47;5055430;28;20452;-81
2022/07/05 00:23:41;;;;;;;4.83;4.30;;;;;;;22.78;51.55;94987.00;5055550;28;20692;-81
2022/07/05 00:26:08;;;;;;;9.50;4.00;;;;;;;22.86;51.29;94994.06;5055095;28;20457;-80
2022/07/05 00:28:34;;;;;;;4.53;4.10;;;;;;;22.72;51.76;94985.16;5053167;28;20817;-79
2022/07/05 00:31:01;;;;;;;6.93;4.30;;;;;;;22.69;52.19;94985.56;5055190;28;20446;-79
2022/07/05 00:33:28;;;;;;;4.30;3.63;;;;;;;22.62;52.68;94973.19;5055342;28;20489;-78
2022/07/05 00:35:56;;;;;;;18.27;3.80;;;;;;;22.62;52.93;94974.03;5055370;28;20442;-82
2022/07/05 00:38:23;;;;;;;6.10;3.90;;;;;;;22.55;52.73;94973.16;5055213;28;20561;-81
2022/07/05 00:40:50;;;;;;;5.87;4.60;;;;;;;22.52;51.99;94974.38;5055068;28;20456;-80
2022/07/05 00:43:17;;;;;;;4.23;3.90;;;;;;;22.58;52.30;94975.44;5054788;28;20442;-81
2022/07/05 00:45:44;;;;;;;9.73;4.07;;;;;;;22.49;52.51;94957.91;5055258;28;20454;-80
2022/07/05 00:48:11;;;;;;;8.03;4.10;;;;;;;22.44;52.12;94969.22;5055053;28;20438;-81
2022/07/05 00:50:38;;;;;;;4.50;4.10;;;;;;;22.48;52.32;94967.78;5055307;28;20434;-81
2022/07/05 00:53:06;;;;;;;7.80;3.80;;;;;;;22.36;52.09;94966.75;5054660;28;20482;-81
2022/07/05 00:55:34;;;;;;;7.30;3.87;;;;;;;22.44;51.87;94974.56;5054787;28;20442;-79
2022/07/05 00:58:01;;;;;;;6.67;3.83;;;;;;;22.44;51.23;94971.91;5054596;28;20457;-79
2022/07/05 01:00:28;;;;;;;6.07;3.20;;;;;;;22.52;51.38;94970.88;5054552;28;20454;-81
2022/07/05 01:02:55;;;;;;;7.57;3.20;;;;;;;22.52;51.20;94970.88;5054795;28;20447;-80
2022/07/05 01:05:23;;;;;;;7.17;3.87;;;;;;;22.58;50.70;94964.75;5035351;28;20442;-80
2022/07/05 01:07:50;;;;;;;6.43;3.60;;;;;;;22.60;50.84;94968.06;5054662;28;20450;-80
2022/07/05 01:10:18;;;;;;;3.90;3.50;;;;;;;22.50;50.66;94965.75;5054334;28;20941;-81
2022/07/05 01:12:46;;;;;;;4.80;3.60;;;;;;;22.49;50.65;94956.06;5054599;28;20486;-80
2022/07/05 01:15:13;;;;;;;3.73;3.43;;;;;;;22.54;50.54;94958.13;5054295;28;20571;-81
2022/07/05 01:17:40;;;;;;;4.70;3.40;;;;;;;22.53;50.48;94970.69;5053884;28;20454;-80
2022/07/05 01:20:09;;;;;;;3.53;3.23;;;;;;;22.55;51.10;94970.47;5054248;28;20941;-80
2022/07/05 01:22:53;;;;;;;3.97;3.67;;;;;;;22.63;51.78;94981.00;5054617;28;20465;-79
2022/07/05 01:25:21;;;;;;;10.87;4.03;;;;;;;22.72;51.78;94985.16;5011855;28;20493;-80
2022/07/05 01:27:49;;;;;;;3.00;2.80;;;;;;;22.78;52.55;94992.34;5012229;28;20444;-80
2022/07/05 01:30:16;;;;;;;5.20;3.33;;;;;;;22.83;51.91;94989.91;5011746;28;20517;-81
2022/07/05 01:32:43;;;;;;;3.50;3.20;;;;;;;22.85;51.77;94985.22;5011869;28;20530;-80
2022/07/05 01:35:11;;;;;;;4.30;3.90;;;;;;;22.91;52.72;94993.47;5011985;28;20445;-80
2022/07/05 01:37:38;;;;;;;4.53;3.10;;;;;;;22.92;52.83;94997.78;5011791;28;20445;-79
2022/07/05 01:40:08;;;;;;;5.00;3.87;;;;;;;22.94;52.84;94998.41;5011779;28;20479;-80
2022/07/05 01:42:35;;;;;;;5.90;3.73;;;;;;;22.94;52.79;94995.72;4979237;28;20575;-80
2022/07/05 01:45:02;;;;;;;8.80;3.80;;;;;;;22.91;52.90;94991.59;5011846;28;20459;-78
2022/07/05 01:47:29;;;;;;;3.83;3.43;;;;;;;22.89;53.03;94984.81;5011567;28;20436;-81
2022/07/05 01:50:00;;;;;;;3.93;3.23;;;;;;;22.90;53.09;94983.78;4979176;28;20462;-78
2022/07/05 01:52:30;;;;;;;3.57;3.33;;;;;;;22.83;52.42;94981.91;5011764;28;20456;-80
2022/07/05 01:54:57;;;;;;;8.87;3.63;;;;;;;22.79;52.39;94985.16;5011496;28;20506;-80
2022/07/05 01:57:26;;;;;;;3.43;3.10;;;;;;;22.76;52.18;94981.03;5011262;28;20454;-80
2022/07/05 01:59:52;;;;;;;4.00;3.47;;;;;;;22.73;52.68;94984.13;5011336;28;20444;-81
2022/07/05 02:02:19;;;;;;;3.40;3.20;;;;;;;22.72;52.89;94982.47;5027532;28;20453;-81
2022/07/05 02:04:46;;;;;;;5.60;4.23;;;;;;;22.72;53.09;94985.16;5035064;28;20469;-81
2022/07/05 02:07:13;;;;;;;3.70;3.40;;;;;;;22.71;53.04;94983.50;5053328;28;20945;-82
2022/07/05 02:09:40;;;;;;;5.10;3.80;;;;;;;22.64;53.51;94982.66;5050761;28;20474;-82
2022/07/05 02:12:07;;;;;;;6.90;3.77;;;;;;;22.57;53.47;94981.81;5053135;28;20441;-80
2022/07/05 02:14:36;;;;;;;3.83;3.33;;;;;;;22.51;53.76;94966.56;5034170;28;20473;-81
2022/07/05 02:17:03;;;;;;;6.60;3.70;;;;;;;22.49;54.35;94968.63;5050373;28;20450;-80
2022/07/05 02:19:30;;;;;;;3.80;3.23;;;;;;;22.48;54.30;94973.13;5053252;28;20452;-81
2022/07/05 02:21:56;;;;;;;4.43;3.53;;;;;;;22.48;53.96;94964.28;5053506;28;20454;-81
2022/07/05 02:24:24;;;;;;;7.00;3.97;;;;;;;22.45;52.80;94972.72;5052905;28;20453;-79
2022/07/05 02:26:51;;;;;;;3.73;3.30;;;;;;;22.11;54.60;94971.78;5053023;28;20446;-81
2022/07/05 02:29:18;;;;;;;8.13;3.90;;;;;;;21.56;59.80;94976.16;5053004;28;20442;-80
2022/07/05 02:31:47;;;;;;;4.77;4.10;;;;;;;21.45;60.47;94978.56;5053089;28;20451;-81
2022/07/05 02:34:13;;;;;;;4.33;3.57;;;;;;;21.51;60.86;94975.94;5050615;28;20484;-81
2022/07/05 02:36:40;;;;;;;4.40;4.00;;;;;;;21.54;60.78;94983.56;5053136;28;20443;-81
2022/07/05 02:39:07;;;;;;;5.77;4.30;;;;;;;21.56;60.68;94983.34;5052832;28;20924;-78
2022/07/05 02:41:34;;;;;;;8.77;4.20;;;;;;;21.57;61.10;94980.50;5052564;28;20458;-80
2022/07/05 02:44:01;;;;;;;4.97;3.73;;;;;;;21.66;60.37;94989.16;5053000;28;20450;-81
2022/07/05 02:46:28;;;;;;;5.10;3.70;;;;;;;21.64;60.68;94986.69;5052531;28;20449;-81
2022/07/05 02:48:56;;;;;;;7.40;4.30;;;;;;;21.63;60.41;94994.91;5052425;28;20452;-79
2022/07/05 02:51:23;;;;;;;9.77;3.80;;;;;;;21.63;60.62;94997.56;5052471;28;20454;-81
2022/07/05 02:53:50;;;;;;;11.23;4.70;;;;;;;21.59;60.90;95009.66;5052733;28;20492;-81
2022/07/05 02:56:17;;;;;;;10.07;4.33;;;;;;;21.55;61.08;95003.06;5052529;28;20438;-82
2022/07/05 02:58:44;;;;;;;9.80;4.43;;;;;;;21.59;60.50;95007.00;5052320;28;20450;-81
2022/07/05 03:01:11;;;;;;;4.23;3.80;;;;;;;21.64;59.42;95004.56;5052870;28;20552;-80
2022/07/05 03:03:38;;;;;;;5.57;3.90;;;;;;;21.65;57.91;94999.03;5052306;28;20455;-82
2022/07/05 03:06:06;;;;;;;6.20;3.53;;;;;;;21.69;57.32;94998.66;5033925;28;20446;-84
2022/07/05 03:08:33;;;;;;;4.07;3.70;;;;;;;21.69;56.74;95004.00;5052239;28;20488;-79
2022/07/05 03:11:00;;;;;;;6.40;2.93;;;;;;;21.65;56.27;94999.03;5052181;28;20947;-82
2022/07/05 03:13:27;;;;;;;5.00;4.17;;;;;;;21.68;56.75;95002.31;5052280;28;20482;-84
2022/07/05 03:15:53;;;;;;;4.13;3.83;;;;;;;21.65;56.51;94996.34;5052159;28;20446;-84
2022/07/05 03:18:20;;;;;;;5.20;4.70;;;;;;;21.76;56.90;95004.88;5052715;28;20434;-82
2022/07/05 03:20:47;;;;;;;4.60;3.30;;;;;;;21.80;56.75;94996.25;5052012;28;20819;-81
2022/07/05 03:23:16;;;;;;;8.40;3.73;;;;;;;21.73;56.66;94986.56;5052126;28;20449;-82
2022/07/05 03:25:43;;;;;;;3.80;3.10;;;;;;;21.60;57.08;94992.63;5052317;28;20994;-82
2022/07/05 03:28:09;;;;;;;3.60;3.40;;;;;;;21.62;56.92;95003.94;5055005;28;20438;-81
2022/07/05 03:30:42;;;;;;;4.50;4.10;;;;;;;21.65;56.76;94996.34;5037281;28;20529;-82
2022/07/05 03:33:29;;;;;;;3.70;3.40;;;;;;;21.82;57.01;94999.56;5056876;28;20453;-80
2022/07/05 03:35:56;;;;;;;8.23;4.07;;;;;;;21.94;56.94;94997.97;5055074;28;20450;-81
2022/07/05 03:38:25;;;;;;;8.43;3.90;;;;;;;22.15;56.42;94998.94;5055236;28;20841;-80
2022/07/05 03:40:52;;;;;;;8.03;3.90;;;;;;;22.35;56.06;94996.34;5054931;28;20448;-80
2022/07/05 03:43:19;;;;;;;7.23;4.20;;;;;;;22.62;55.55;94999.94;5054795;28;20509;-81
2022/07/05 03:52:28;;;;;;;6.80;4.30;;;;;;;23.46;53.64;94986.91;5053590;28;20440;-83
2022/07/05 03:54:56;;;;;;;6.10;4.47;;;;;;;23.78;53.52;94988.75;5056361;28;20470;-82
2022/07/05 03:57:23;;;;;;;5.27;4.10;;;;;;;24.07;52.52;94982.06;5056584;28;20438;-81
2022/07/05 03:59:50;;;;;;;6.60;5.03;;;;;;;24.32;51.73;94979.53;5057285;28;20445;-82
2022/07/05 04:02:17;;;;;;;6.60;4.30;;;;;;;24.52;51.23;94976.75;5056617;28;20427;-80
2022/07/05 04:04:44;;;;;;;11.70;5.27;;;;;;;24.75;50.48;94980.78;5055621;28;20448;-80
2022/07/05 04:07:11;;;;;;;6.50;4.90;;;;;;;24.95;50.18;94973.44;5055252;28;20459;-81
2022/07/05 04:09:38;;;;;;;4.43;4.13;;;;;;;25.11;50.04;94977.47;5057241;28;20484;-82
2022/07/05 04:12:07;;;;;;;11.03;4.30;;;;;;;25.19;49.94;94977.22;5061075;28;20446;-82
2022/07/05 04:14:34;;;;;;;7.00;5.00;;;;;;;25.31;49.53;94973.59;5041138;28;20479;-80
2022/07/05 04:17:01;;;;;;;4.03;3.73;;;;;;;25.41;49.36;94980.31;5076616;28;20788;-83
2022/07/05 04:19:28;;;;;;;7.63;4.10;;;;;;;25.57;48.97;94975.25;5076051;28;20447;-82
2022/07/05 04:21:55;;;;;;;4.70;4.30;;;;;;;25.74;48.90;94978.22;5076345;28;20750;-81
2022/07/05 04:24:22;;;;;;;14.73;3.83;;;;;;;25.83;48.33;94974.19;5076509;28;20436;-83
2022/07/05 04:27:09;;;;;;;4.23;3.93;;;;;;;26.02;47.85;94979.56;5076242;28;20436;-82
2022/07/05 04:29:35;;;;;;;6.60;4.40;;;;;;;26.22;48.02;94986.38;5076466;28;20436;-80
2022/07/05 04:32:02;;;;;;;6.33;4.10;;;;;;;26.55;47.90;94987.88;5041127;28;20478;-80
2022/07/05 04:34:29;;;;;;;12.23;4.10;;;;;;;26.89;48.28;94994.50;5040790;28;20490;-80
2022/07/05 04:36:56;;;;;;;5.10;4.00;;;;;;;27.14;46.79;94997.88;5076840;28;20539;-79
2022/07/05 04:39:23;;;;;;;6.20;4.27;;;;;;;27.29;48.70;94989.38;5075461;28;20461;-82
2022/07/05 04:41:50;;;;;;;7.20;4.83;;;;;;;27.60;45.68;94990.94;5076044;28;20965;-83
2022/07/05 04:44:18;;;;;;;6.23;4.00;;;;;;;27.86;44.79;94991.56;5076159;28;20439;-86
2022/07/05 04:46:45;;;;;;;5.07;3.97;;;;;;;28.04;44.29;94996.81;5076000;28;20933;-85
2022/07/05 04:49:12;;;;;;;4.13;3.77;;;;;;;28.16;44.39;94994.94;5076052;28;20451;-83
2022/07/05 04:51:39;;;;;;;8.50;4.00;;;;;;;28.08;43.43;94992.63;5077152;28;20441;-88
2022/07/05 05:04:24;;;;;;;5.20;3.93;;;;;;;28.34;43.60;94989.44;5075947;28;20399;-87
2022/07/05 05:06:51;;;;;;;6.33;3.90;;;;;;;28.46;43.35;94999.38;5076083;28;20447;-84
2022/07/05 05:09:18;;;;;;;7.57;4.17;;;;;;;28.70;42.99;94990.16;5075611;28;20488;-87
2022/07/05 05:11:45;;;;;;;4.80;4.40;;;;;;;28.80;42.80;94995.75;5075931;28;20947;-85
2022/07/05 05:14:12;;;;;;;4.93;4.27;;;;;;;29.02;43.19;95000.53;5040399;28;20477;-82
2022/07/05 05:16:39;;;;;;;4.83;4.47;;;;;;;29.05;42.15;94990.03;5075443;28;20527;-85
2022/07/05 05:19:06;;;;;;;5.10;4.50;;;;;;;29.15;42.78;94994.81;5075455;28;20449;-84
2022/07/05 05:21:34;;;;;;;8.60;4.60;;;;;;;29.22;42.49;94992.78;5074883;28;20462;-82
2022/07/05 05:24:02;;;;;;;6.27;4.67;;;;;;;29.32;42.55;94992.13;5038659;28;20436;-86
2022/07/05 05:26:29;;;;;;;8.17;4.70;;;;;;;29.40;42.16;94995.25;5074054;28;20455;-86
2022/07/05 05:28:56;;;;;;;8.10;5.13;;;;;;;29.50;41.77;94990.06;5074280;28;20445;-84
2022/07/05 05:31:23;;;;;;;14.70;5.50;;;;;;;29.67;41.86;94992.75;5074071;28;20445;-85
2022/07/05 05:33:50;;;;;;;15.13;5.80;;;;;;;29.80;41.92;94984.31;5074049;28;20944;-85
2022/07/05 05:36:16;;;;;;;6.53;5.10;;;;;;;29.96;41.28;94993.47;5074078;28;20437;-85
2022/07/05 05:38:45;;;;;;;7.33;5.30;;;;;;;30.09;40.99;95001.28;5039124;28;20552;-83
2022/07/05 05:41:12;;;;;;;6.20;4.30;;;;;;;30.15;40.45;94986.75;5073737;28;20457;-86
2022/07/05 05:43:38;;;;;;;10.87;5.40;;;;;;;30.28;40.48;94990.16;5073815;28;20444;-88
2022/07/05 05:46:05;;;;;;;5.87;5.30;;;;;;;30.41;40.39;94992.53;5073738;28;20449;-86
2022/07/05 05:48:32;;;;;;;8.00;5.93;;;;;;;30.41;40.02;94981.69;5073833;28;20825;-84
2022/07/05 05:51:00;;;;;;;14.10;5.00;;;;;;;30.58;40.69;94985.13;5074076;28;20464;-87
2022/07/05 05:53:27;;;;;;;7.40;5.40;;;;;;;30.64;40.43;94994.97;5073692;28;20450;-86
2022/07/05 05:55:56;;;;;;;5.67;5.10;;;;;;;30.63;40.31;94998.75;5073268;28;20493;-85
2022/07/05 05:58:24;;;;;;;4.60;4.30;;;;;;;30.72;40.84;94996.44;5073997;28;20444;-87
2022/07/05 06:00:52;;;;;;;5.13;4.73;;;;;;;30.89;40.08;95001.78;5073645;28;20525;-85
2022/07/05 06:03:19;;;;;;;8.73;5.00;;;;;;;31.02;39.95;95006.81;5073244;28;20999;-85
2022/07/05 06:05:46;;;;;;;6.63;4.37;;;;;;;31.09;39.31;94996.59;5073288;28;20444;-85
2022/07/05 06:08:14;;;;;;;7.83;6.47;;;;;;;31.09;39.71;95002.00;5073347;28;20482;-85
2022/07/05 06:10:41;;;;;;;9.43;5.10;;;;;;;31.01;39.66;94997.06;5073515;28;20463;-85
2022/07/05 06:13:11;;;;;;;8.87;5.50;;;;;;;31.16;40.29;94986.38;5073235;28;20429;-83
2022/07/05 06:15:38;;;;;;;6.90;5.43;;;;;;;31.28;39.18;94997.91;5073035;28;20488;-84
2022/07/05 06:18:06;;;;;;;5.53;5.13;;;;;;;31.38;39.51;94999.88;5073104;28;20455;-84
2022/07/05 06:20:34;;;;;;;5.90;5.40;;;;;;;31.31;37.55;94993.88;5073168;28;20978;-85
2022/07/05 06:23:02;;;;;;;6.70;5.97;;;;;;;31.16;38.13;94993.66;5037755;28;20464;-83
2022/07/05 06:25:30;;;;;;;6.53;5.50;;;;;;;31.19;38.29;95001.31;5072905;28;20454;-86
2022/07/05 06:27:59;;;;;;;12.63;6.20;;;;;;;31.32;38.22;95001.75;5072565;28;20448;-86
2022/07/05 06:30:29;;;;;;;10.93;5.63;;;;;;;31.35;38.51;95000.41;5073251;28;20436;-86
2022/07/05 06:32:56;;;;;;;14.43;6.33;;;;;;;31.26;39.77;95005.47;5073180;28;20456;-85
2022/07/05 06:35:24;;;;;;;11.87;6.73;;;;;;;31.13;38.93;95003.13;5072679;28;20488;-85
2022/07/05 06:37:53;;;;;;;12.17;7.13;;;;;;;31.19;39.86;95006.75;5072568;28;20443;-84
2022/07/05 06:40:21;;;;;;;10.90;6.43;;;;;;;30.90;39.88;95004.22;5072657;28;20454;-84
2022/07/05 06:42:49;;;;;;;10.50;5.70;;;;;;;30.72;40.14;95002.69;5072588;28;20453;-86
2022/07/05 06:45:17;;;;;;;16.70;6.43;;;;;;;30.72;40.10;94994.56;5073323;28;20460;-84
2022/07/05 06:47:45;;;;;;;8.40;6.40;;;;;;;30.95;40.39;95000.78;5072770;28;20456;-82
2022/07/05 06:50:12;;;;;;;7.53;6.60;;;;;;;30.87;38.69;94995.78;5072450;28;20448;-87
2022/07/05 06:52:40;;;;;;;10.37;6.57;;;;;;;30.88;38.96;95000.13;5037199;28;20442;-84
2022/07/05 06:55:08;;;;;;;10.00;5.80;;;;;;;30.77;38.44;94989.19;5072323;28;20890;-86
2022/07/05 06:57:35;;;;;;;14.00;6.87;;;;;;;30.74;39.11;94992.41;5072490;28;20456;-85
2022/07/05 07:00:02;;;;;;;7.97;7.27;;;;;;;30.95;39.21;94989.94;5072270;28;20536;-86
2022/07/05 07:02:29;;;;;;;8.77;6.40;;;;;;;31.04;40.11;94994.66;5071410;28;20819;-86
2022/07/05 07:04:58;;;;;;;11.17;6.60;;;;;;;30.96;40.12;94984.28;5072475;28;20445;-86
2022/07/05 07:10:09;;;;;;;13.83;6.80;;;;;;;30.81;41.37;94984.09;5072330;28;20462;-85
2022/07/05 07:12:36;;;;;;;10.30;6.73;;;;;;;30.48;40.19;94985.03;5072124;28;20805;-87
2022/07/05 07:15:04;;;;;;;11.53;7.20;;;;;;;30.15;41.08;94975.09;5072238;28;20503;-86
2022/07/05 07:17:31;;;;;;;6.63;5.90;;;;;;;29.98;40.91;94983.22;5036966;28;20528;-86
2022/07/05 07:19:59;;;;;;;16.60;6.07;;;;;;;30.01;41.79;94985.41;5072541;28;20456;-86
2022/07/05 07:22:26;;;;;;;7.57;6.20;;;;;;;30.21;41.50;94965.97;5072367;28;20456;-86
2022/07/05 07:24:54;;;;;;;8.13;6.67;;;;;;;30.46;41.37;94979.03;5036703;28;20960;-86
2022/07/05 07:27:21;;;;;;;21.13;7.47;;;;;;;30.47;41.40;94976.06;5072104;28;20449;-86
2022/07/05 07:29:48;;;;;;;13.20;7.10;;;;;;;30.72;41.76;94980.19;5072055;28;20446;-86
2022/07/05 07:32:15;;;;;;;8.83;6.80;;;;;;;30.95;40.16;94989.94;5072196;28;20459;-86
2022/07/05 07:34:42;;;;;;;12.30;7.30;;;;;;;31.25;40.42;94984.88;5072196;28;20477;-85
2022/07/05 07:37:13;;;;;;;14.97;6.67;;;;;;;31.46;39.33;94979.59;5072577;28;20683;-85
2022/07/05 07:39:40;;;;;;;9.33;6.70;;;;;;;31.72;38.77;94989.63;5073384;28;20446;-86
2022/07/05 07:42:07;;;;;;;8.97;5.30;;;;;;;31.98;38.63;94991.44;5074014;28;20439;-83
2022/07/05 07:44:34;;;;;;;9.80;6.80;;;;;;;32.13;37.68;94979.88;5075296;28;20444;-87
2022/07/05 07:47:01;;;;;;;6.63;5.93;;;;;;;32.24;37.50;94983.47;5074847;28;20449;-86
2022/07/05 07:49:28;;;;;;;7.63;6.60;;;;;;;32.39;38.25;94980.88;5073574;28;20491;-87
2022/07/05 07:51:55;;;;;;;13.10;6.30;;;;;;;32.51;36.18;94984.19;5075790;28;20452;-86
2022/07/05 07:54:24;;;;;;;14.33;6.27;;;;;;;32.54;37.13;94980.94;5073627;28;20468;-82
2022/07/05 07:56:51;;;;;;;10.53;6.10;;;;;;;32.45;37.41;94981.72;5072959;28;20451;-87
2022/07/05 07:59:18;;;;;;;9.87;6.63;;;;;;;32.28;36.16;94981.88;5072483;28;20460;-86
2022/07/05 08:01:44;;;;;;;7.37;6.33;;;;;;;32.39;36.47;94975.44;5072346;28;20429;-86
2022/07/05 08:04:12;;;;;;;12.00;7.07;;;;;;;32.51;36.43;94980.66;5072046;28;20452;-84
2022/07/05 08:06:39;;;;;;;12.13;6.80;;;;;;;32.64;36.03;94983.69;5071950;28;20449;-85
2022/07/05 08:09:06;;;;;;;15.27;6.70;;;;;;;32.82;36.15;94976.19;5071993;28;20478;-86
2022/07/05 08:11:35;;;;;;;7.10;6.37;;;;;;;32.73;35.82;94977.75;5071811;28;20445;-84
2022/07/05 08:14:02;;;;;;;10.50;6.37;;;;;;;32.85;36.55;94984.63;5073999;28;20449;-85
2022/07/05 08:16:28;;;;;;;12.67;6.50;;;;;;;32.24;39.85;94980.75;5075401;28;20478;-84
2022/07/05 08:21:40;;;;;;;10.37;5.90;;;;;;;32.35;38.59;94971.59;5075448;28;20532;-86
2022/07/05 08:24:09;;;;;;;11.43;7.10;;;;;;;32.29;39.15;94973.47;5075616;28;20799;-85
2022/07/05 08:26:38;;;;;;;11.13;6.60;;;;;;;32.39;39.13;94959.16;5075126;28;20453;-86
2022/07/05 08:29:07;;;;;;;14.43;6.63;;;;;;;32.51;38.13;94964.34;5075545;28;20452;-87
2022/07/05 08:31:36;;;;;;;8.17;6.33;;;;;;;32.68;37.75;94964.16;5075400;28;20448;-86
2022/07/05 08:34:04;;;;;;;6.73;5.93;;;;;;;32.59;38.10;94961.94;5075348;28;20472;-86
2022/07/05 08:36:31;;;;;;;10.20;6.53;;;;;;;32.61;39.50;94958.94;5075529;28;20486;-86
2022/07/05 08:38:58;;;;;;;8.77;5.93;;;;;;;32.73;39.22;94953.31;5075666;28;20448;-86
2022/07/05 08:41:26;;;;;;;11.27;6.50;;;;;;;32.80;38.88;94946.56;5075397;28;20455;-88
2022/07/05 08:43:56;;;;;;;10.70;7.33;;;;;;;32.69;36.85;94954.91;5075419;28;20433;-87
2022/07/05 08:46:25;;;;;;;14.90;7.43;;;;;;;32.42;37.82;94953.19;5075203;28;20459;-85
2022/07/05 08:48:52;;;;;;;7.60;6.57;;;;;;;32.29;39.87;94950.94;5074975;28;20449;-87
2022/07/05 08:51:22;;;;;;;7.50;6.70;;;;;;;32.31;40.42;94954.19;5075016;28;20471;-86
2022/07/05 08:53:50;;;;;;;10.37;6.03;;;;;;;32.14;38.17;94951.66;5075092;28;20445;-85
2022/07/05 08:56:18;;;;;;;11.33;6.47;;;;;;;32.07;38.78;94942.91;5074812;28;20485;-87
2022/07/05 08:58:45;;;;;;;12.77;7.27;;;;;;;32.27;39.26;94947.66;5075262;28;20455;-84
2022/07/05 09:01:14;;;;;;;9.40;6.17;;;;;;;31.98;38.44;94944.47;5075108;28;20440;-86
2022/07/05 09:03:46;;;;;;;8.40;6.50;;;;;;;32.05;40.47;94950.50;5074799;28;20888;-85
2022/07/05 09:06:16;;;;;;;19.17;6.83;;;;;;;32.08;40.32;94930.97;5074482;28;20962;-86
2022/07/05 09:08:44;;;;;;;10.57;6.93;;;;;;;32.20;40.11;94938.91;5074777;28;20507;-86
2022/07/05 09:11:14;;;;;;;10.73;6.70;;;;;;;32.33;38.98;94933.03;5074874;28;20478;-86
2022/07/05 09:13:43;;;;;;;8.43;6.57;;;;;;;32.04;38.53;94936.09;5074389;28;20452;-87
2022/07/05 09:16:11;;;;;;;7.60;6.90;;;;;;;32.07;39.97;94926.59;5074085;28;20492;-86
2022/07/05 09:18:44;;;;;;;9.93;6.17;;;;;;;32.03;41.76;94928.22;5074705;28;20451;-86
2022/07/05 09:21:19;;;;;;;12.20;6.27;;;;;;;31.87;38.70;94916.47;5074115;28;20931;-85
2022/07/05 09:23:46;;;;;;;9.13;7.10;;;;;;;31.82;39.39;94919.16;5055437;28;20447;-86
2022/07/05 09:26:16;;;;;;;10.30;7.57;;;;;;;31.83;39.70;94917.25;5054853;28;20431;-85
2022/07/05 09:28:56;;;;;;;13.13;8.33;;;;;;;31.95;39.30;94910.53;5074578;28;20441;-85
2022/07/05 09:31:31;;;;;;;13.93;7.87;;;;;;;32.02;39.17;94913.81;5074377;28;20950;-85
2022/07/05 09:34:09;;;;;;;8.53;7.63;;;;;;;32.24;41.59;94904.72;5073861;28;20447;-86
2022/07/05 09:36:52;;;;;;;20.00;7.43;;;;;;;32.20;38.93;94898.19;5074164;28;20519;-87
2022/07/05 09:39:35;;;;;;;11.93;8.83;;;;;;;32.35;39.08;94903.69;5038355;28;20444;-85
2022/07/05 09:42:12;;;;;;;7.80;6.80;;;;;;;32.49;38.24;94901.31;5073795;28;20455;-87
2022/07/05 09:44:40;;;;;;;8.20;7.50;;;;;;;32.53;40.03;94905.94;5073815;28;20968;-85
2022/07/05 09:47:13;;;;;;;10.83;6.83;;;;;;;32.34;38.50;94889.28;5073785;28;20457;-85
2022/07/05 09:49:44;;;;;;;25.67;7.60;;;;;;;32.25;39.12;94890.03;5073608;28;20456;-84
2022/07/05 09:52:12;;;;;;;11.57;6.10;;;;;;;32.32;38.90;94898.78;5073910;28;20514;-85
2022/07/05 09:54:39;;;;;;;10.10;6.80;;;;;;;32.34;39.49;94889.28;5073332;28;20451;-86
2022/07/05 09:57:06;;;;;;;8.17;6.30;;;;;;;32.47;38.86;94888.00;5073304;28;20485;-84
2022/07/05 09:59:33;;;;;;;11.40;7.13;;;;;;;32.46;40.59;94880.94;5073296;28;20836;-84
2022/07/05 10:02:00;;;;;;;6.83;6.13;;;;;;;32.46;39.68;94878.22;5054425;28;20435;-83
2022/07/05 10:04:27;;;;;;;9.20;6.20;;;;;;;32.48;40.90;94883.38;5073190;28;20966;-84
2022/07/05 10:06:55;;;;;;;8.50;6.37;;;;;;;32.42;38.82;94879.84;5073440;28;20445;-86
2022/07/05 10:09:25;;;;;;;9.33;6.40;;;;;;;32.27;39.12;94872.44;5072896;28;20483;-85
2022/07/05 10:11:52;;;;;;;9.43;7.23;;;;;;;32.27;39.34;94871.63;5073400;28;20962;-85
2022/07/05 10:14:21;;;;;;;10.40;6.77;;;;;;;32.38;39.23;94869.75;5073438;28;20452;-83
2022/07/05 10:17:01;;;;;;;6.50;5.90;;;;;;;32.51;40.17;94870.06;5073540;28;20997;-85
2022/07/05 10:19:34;;;;;;;5.77;5.37;;;;;;;32.49;41.99;94863.28;5073273;28;20517;-83
2022/07/05 10:22:03;;;;;;;9.33;6.63;;;;;;;32.56;40.13;94858.41;5073510;28;20449;-85
2022/07/05 10:24:35;;;;;;;7.63;6.23;;;;;;;32.65;39.50;94852.16;5073282;28;20461;-84
2022/07/05 10:27:07;;;;;;;10.60;6.80;;;;;;;32.76;41.05;94849.47;5054000;28;20432;-84
2022/07/05 10:29:35;;;;;;;8.40;6.50;;;;;;;32.66;39.66;94851.06;5072786;28;20433;-84
2022/07/05 10:32:04;;;;;;;9.13;6.30;;;;;;;32.60;39.56;94848.63;5072844;28;20451;-85
2022/07/05 10:34:33;;;;;;;7.10;6.40;;;;;;;32.51;39.79;94842.91;5072562;28;20450;-85
2022/07/05 10:37:02;;;;;;;7.40;6.70;;;;;;;32.33;42.35;94832.50;5071990;28;20491;-84
2022/07/05 10:39:29;;;;;;;6.63;6.03;;;;;;;32.07;41.95;94844.34;5072796;28;20441;-84
2022/07/05 10:41:58;;;;;;;7.97;6.67;;;;;;;32.18;42.86;94835.16;5072727;28;20445;-84
2022/07/05 10:44:32;;;;;;;6.87;6.37;;;;;;;31.92;41.80;94831.53;5054545;28;20902;-83
2022/07/05 10:47:12;;;;;;;7.90;6.30;;;;;;;32.18;42.23;94832.44;5073008;28;20464;-87
2022/07/05 10:49:40;;;;;;;7.90;6.53;;;;;;;32.37;42.62;94830.06;5072685;28;21002;-84
2022/07/05 10:52:23;;;;;;;11.13;6.80;;;;;;;32.50;42.62;94838.56;5054100;28;20453;-84
2022/07/05 10:55:19;;;;;;;9.30;7.37;;;;;;;32.62;42.27;94820.09;5072578;28;20453;-85
2022/07/05 10:58:36;;;;;;;10.57;6.83;;;;;;;32.71;38.16;94825.00;5072749;28;20449;-84
2022/07/05 11:01:45;;;;;;;11.60;8.30;;;;;;;32.68;38.25;94812.78;5030191;28;20496;-85
2022/07/05 11:04:35;;;;;;;8.37;7.50;;;;;;;32.28;39.02;94822.47;5030089;28;20443;-85
2022/07/05 11:07:02;;;;;;;8.00;7.30;;;;;;;32.46;38.73;94817.63;5030399;28;20941;-85
2022/07/05 11:09:31;;;;;;;11.07;7.10;;;;;;;32.41;37.48;94823.88;5030011;28;20478;-85
2022/07/05 11:12:08;;;;;;;9.27;6.97;;;;;;;32.47;38.55;94814.63;5030260;28;20450;-86
2022/07/05 11:14:39;;;;;;;15.23;6.90;;;;;;;32.20;38.12;94822.13;5030003;28;20518;-85
2022/07/05 11:17:15;;;;;;;9.83;7.70;;;;;;;31.95;38.16;94807.38;5029979;28;21052;-82
2022/07/05 11:20:13;;;;;;;7.60;6.87;;;;;;;32.03;39.34;94816.91;5029994;28;20530;-84
2022/07/05 11:23:00;;;;;;;9.20;7.17;;;;;;;31.93;37.52;94816.88;5030234;28;20446;-86
2022/07/05 11:25:30;;;;;;;13.17;7.77;;;;;;;31.88;38.14;94811.44;5030214;28;20443;-86
2022/07/05 11:28:02;;;;;;;8.83;7.30;;;;;;;31.92;39.09;94809.81;5029886;28;20527;-86
2022/07/05 11:30:29;;;;;;;7.80;6.90;;;;;;;32.07;38.83;94811.75;5030273;28;20961;-84
2022/07/05 11:32:59;;;;;;;7.67;7.03;;;;;;;31.76;36.69;94811.63;5030217;28;20476;-83
2022/07/05 11:35:33;;;;;;;10.77;7.20;;;;;;;31.73;38.25;94801.31;5054806;28;20455;-89
2022/07/05 11:38:03;;;;;;;9.53;7.33;;;;;;;31.76;38.77;94808.91;5072371;28;20435;-85
2022/07/05 11:40:33;;;;;;;7.47;6.87;;;;;;;32.02;40.77;94804.41;5072433;28;20452;-88
2022/07/05 11:43:02;;;;;;;14.03;6.97;;;;;;;32.21;40.93;94802.84;5072825;28;20441;-86
2022/07/05 11:45:30;;;;;;;7.53;6.83;;;;;;;32.26;38.92;94799.38;5072744;28;20452;-87
2022/07/05 11:47:58;;;;;;;7.80;7.10;;;;;;;32.41;38.01;94795.88;5073947;28;20451;-85
2022/07/05 11:50:30;;;;;;;8.27;7.43;;;;;;;32.57;40.06;94795.63;5077212;28;20482;-83
2022/07/05 11:52:58;;;;;;;8.17;7.27;;;;;;;32.28;37.01;94792.59;5077314;28;20448;-85
2022/07/05 11:55:27;;;;;;;8.60;7.13;;;;;;;32.35;38.34;94781.44;5077357;28;20442;-84
2022/07/05 11:57:56;;;;;;;8.10;6.93;;;;;;;32.39;37.57;94773.59;5076680;28;20822;-81
2022/07/05 12:00:27;;;;;;;7.53;6.87;;;;;;;32.54;38.86;94769.00;5077122;28;20440;-81
2022/07/05 12:02:54;;;;;;;9.90;6.60;;;;;;;32.59;40.08;94769.00;5076399;28;20977;-79